Time;durP1;ratioP1;P1;durP2;ratioP2;P2;SDS_P1;SDS_P2;PMS_P1;PMS_P2;Temp;Humidity;BMP_temperature;BMP_pressure;BME280_temperature;BME280_humidity;BME280_pressure;Samples;Min_cycle;Max_cycle;Signal;HPM_P1;HPM_P2
2023/04/23 00:03:25;;;;;;;15.43;7.57;;;;;;;12.81;46.55;99566.13;7765989;32;38219;-84
2023/04/23 00:07:42;;;;;;;17.73;8.38;;;;;;;13.08;45.54;99562.78;7764972;32;40120;-83
2023/04/23 00:12:00;;;;;;;13.35;8.20;;;;;;;12.79;45.65;99566.41;7765809;32;39825;-83
2023/04/23 00:16:19;;;;;;;15.20;8.70;;;;;;;12.88;46.18;99566.59;7756221;32;37985;-83
2023/04/23 00:20:35;;;;;;;13.55;8.18;;;;;;;12.24;48.44;99566.72;7739224;32;35986;-84
2023/04/23 00:24:52;;;;;;;13.80;8.88;;;;;;;12.65;47.38;99560.84;7739052;32;39250;-84
2023/04/23 00:29:08;;;;;;;12.77;7.87;;;;;;;12.56;47.67;99562.59;7738823;32;41264;-84
2023/04/23 00:33:25;;;;;;;15.70;8.55;;;;;;;12.24;48.28;99563.19;7738936;32;37899;-84
2023/04/23 00:37:41;;;;;;;13.82;8.00;;;;;;;12.44;47.51;99560.25;7737540;32;37213;-84
2023/04/23 00:42:00;;;;;;;15.15;8.65;;;;;;;12.50;47.09;99555.53;7738751;32;39431;-83
2023/04/23 00:46:17;;;;;;;16.10;8.45;;;;;;;12.29;47.40;99547.53;7738582;32;40018;-85
2023/04/23 00:50:33;;;;;;;13.70;8.85;;;;;;;12.34;47.25;99552.97;7738598;32;37953;-83
2023/04/23 00:54:49;;;;;;;13.43;8.48;;;;;;;12.24;47.86;99553.06;7738358;32;37901;-84
2023/04/23 00:59:06;;;;;;;15.43;7.87;;;;;;;12.34;47.78;99549.44;7737390;32;39265;-84
2023/04/23 01:03:24;;;;;;;16.25;9.27;;;;;;;12.23;48.02;99547.88;7738429;32;40019;-83
2023/04/23 01:07:42;;;;;;;13.93;8.45;;;;;;;12.23;48.07;99551.44;7737299;32;37128;-83
2023/04/23 01:11:58;;;;;;;21.10;10.93;;;;;;;12.21;48.24;99546.28;7737283;32;37145;-83
2023/04/23 01:16:16;;;;;;;18.92;10.60;;;;;;;12.15;48.35;99547.41;7724757;32;40107;-83
2023/04/23 01:20:33;;;;;;;18.05;9.55;;;;;;;12.15;48.50;99554.81;7737995;32;40625;-82
2023/04/23 01:24:49;;;;;;;16.73;9.95;;;;;;;12.29;48.43;99553.00;7738920;32;37957;-83
2023/04/23 01:29:06;;;;;;;13.62;9.45;;;;;;;11.90;49.44;99551.19;7760381;32;37996;-83
2023/04/23 01:33:23;;;;;;;17.50;9.98;;;;;;;11.92;49.63;99551.72;7763788;32;39158;-84
2023/04/23 01:37:40;;;;;;;15.40;8.85;;;;;;;11.99;49.48;99538.56;7750468;32;39847;-83
2023/04/23 01:41:57;;;;;;;14.48;8.00;;;;;;;11.88;49.54;99542.44;7737999;32;37915;-83
2023/04/23 01:46:13;;;;;;;18.42;9.38;;;;;;;11.86;48.98;99544.63;7742664;32;37959;-84
2023/04/23 01:50:30;;;;;;;14.35;8.90;;;;;;;11.79;48.87;99539.50;7744995;32;39300;-84
2023/04/23 01:54:47;;;;;;;17.52;9.05;;;;;;;11.65;49.54;99539.34;7737843;32;39647;-84
2023/04/23 01:59:03;;;;;;;17.73;9.35;;;;;;;11.56;49.88;99545.72;7738063;32;38611;-83
2023/04/23 02:03:19;;;;;;;13.55;9.02;;;;;;;11.69;49.72;99536.03;7737880;32;37953;-83
2023/04/23 02:07:36;;;;;;;16.85;8.38;;;;;;;11.57;50.38;99542.69;7749905;32;40047;-83
2023/04/23 02:11:52;;;;;;;13.50;8.60;;;;;;;11.68;49.94;99542.63;7764249;32;39928;-83
2023/04/23 02:16:08;;;;;;;14.10;8.70;;;;;;;11.35;51.12;99534.09;7760475;32;37641;-83
2023/04/23 02:20:25;;;;;;;15.02;9.32;;;;;;;11.61;49.90;99521.09;7737461;32;37898;-84
2023/04/23 02:24:41;;;;;;;19.50;9.77;;;;;;;11.26;50.68;99532.00;7737501;32;40203;-83
2023/04/23 02:28:58;;;;;;;14.90;8.52;;;;;;;11.20;50.37;99524.91;7757561;32;39942;-83
2023/04/23 02:33:14;;;;;;;13.18;8.45;;;;;;;11.45;49.19;99523.09;7764259;32;38598;-84
2023/04/23 02:37:32;;;;;;;14.87;8.45;;;;;;;11.35;49.01;99524.00;7748921;32;37823;-84
2023/04/23 02:41:48;;;;;;;14.02;7.50;;;;;;;11.30;49.24;99520.47;7737253;32;39195;-83
2023/04/23 02:46:08;;;;;;;14.48;8.70;;;;;;;11.08;50.57;99519.00;7742097;32;40795;-83
2023/04/23 02:50:24;;;;;;;14.68;9.07;;;;;;;11.03;50.55;99516.28;7763741;32;38744;-84
2023/04/23 02:54:40;;;;;;;14.70;8.95;;;;;;;10.95;51.09;99514.16;7763533;32;36887;-83
2023/04/23 02:58:57;;;;;;;11.82;8.05;;;;;;;11.11;51.31;99523.06;7759440;32;39292;-83
2023/04/23 03:03:14;;;;;;;17.65;9.07;;;;;;;11.00;51.13;99512.19;7763444;32;39980;-83
2023/04/23 03:07:31;;;;;;;16.77;8.52;;;;;;;11.03;50.78;99517.09;7748833;32;37764;-83
2023/04/23 03:11:48;;;;;;;13.85;8.95;;;;;;;11.04;50.88;99515.22;7736304;32;37361;-83
2023/04/23 03:16:04;;;;;;;15.02;9.07;;;;;;;11.00;50.91;99512.19;7742369;32;39443;-84
2023/04/23 03:20:21;;;;;;;16.00;8.63;;;;;;;10.94;51.47;99512.53;7762991;32;40548;-83
2023/04/23 03:24:37;;;;;;;15.20;9.43;;;;;;;11.02;51.22;99511.94;7762677;32;38069;-83
2023/04/23 03:28:54;;;;;;;14.60;9.20;;;;;;;10.99;51.61;99515.25;7737012;32;37870;-83
2023/04/23 03:33:10;;;;;;;15.15;8.80;;;;;;;11.13;51.45;99512.69;7735795;32;40109;-83
2023/04/23 03:37:27;;;;;;;19.30;8.75;;;;;;;10.78;52.11;99518.06;7743939;32;40473;-83
2023/04/23 03:41:43;;;;;;;14.55;8.80;;;;;;;10.87;52.06;99519.09;7760122;32;38667;-83
2023/04/23 03:45:59;;;;;;;15.20;8.57;;;;;;;11.08;51.25;99516.28;7759581;32;37230;-82
2023/04/23 03:50:16;;;;;;;15.27;8.63;;;;;;;10.87;51.79;99521.81;7739476;32;39253;-83
2023/04/23 03:54:32;;;;;;;16.35;8.77;;;;;;;10.94;52.52;99523.44;7739113;32;40875;-83
2023/04/23 03:58:49;;;;;;;15.95;9.45;;;;;;;10.98;52.14;99530.75;7740085;32;37865;-83
2023/04/23 04:03:07;;;;;;;13.62;8.93;;;;;;;11.04;51.91;99520.66;7739322;32;37853;-83
2023/04/23 04:07:24;;;;;;;15.43;9.63;;;;;;;10.89;52.92;99522.34;7751183;32;40049;-83
2023/04/23 04:11:41;;;;;;;17.35;9.65;;;;;;;10.64;53.76;99525.19;7739146;32;39856;-83
2023/04/23 04:15:57;;;;;;;15.68;9.77;;;;;;;10.74;53.88;99529.81;7744507;32;37808;-83
2023/04/23 04:20:13;;;;;;;17.77;9.90;;;;;;;11.00;53.05;99527.75;7765817;32;38098;-83
2023/04/23 04:24:31;;;;;;;17.10;8.73;;;;;;;10.81;53.27;99525.66;7765975;32;39677;-83
2023/04/23 04:28:47;;;;;;;15.48;9.10;;;;;;;10.79;53.26;99537.97;7742030;32;40904;-83
2023/04/23 04:33:04;;;;;;;15.95;9.55;;;;;;;10.75;53.73;99536.91;7738848;32;37973;-83
2023/04/23 04:37:20;;;;;;;14.50;9.05;;;;;;;10.92;53.03;99531.06;7752539;32;37092;-84
2023/04/23 04:41:37;;;;;;;14.18;9.00;;;;;;;10.86;53.03;99528.37;7765810;32;39123;-83
2023/04/23 04:45:53;;;;;;;14.55;9.35;;;;;;;10.79;53.60;99543.41;7760605;32;39979;-83
2023/04/23 04:50:10;;;;;;;17.20;8.68;;;;;;;10.92;53.45;99537.38;7737815;32;38698;-83
2023/04/23 04:54:26;;;;;;;14.52;8.95;;;;;;;10.87;53.61;99540.91;7738472;32;36954;-84
2023/04/23 04:58:43;;;;;;;14.60;8.80;;;;;;;10.96;53.90;99541.16;7763498;32;39321;-83
2023/04/23 05:02:59;;;;;;;16.15;9.40;;;;;;;11.12;53.61;99541.06;7765329;32;40407;-84
2023/04/23 05:07:16;;;;;;;13.40;9.07;;;;;;;11.23;53.38;99543.47;7754533;32;37844;-84
2023/04/23 05:11:34;;;;;;;24.55;8.98;;;;;;;11.12;53.84;99552.78;7765155;32;37872;-83
2023/04/23 05:15:50;;;;;;;18.65;9.70;;;;;;;11.22;53.81;99541.81;7764038;32;40398;-83
2023/04/23 05:20:11;;;;;;;46.00;27.20;;;;;;;11.36;53.68;99546.66;7765674;32;38607;-83
2023/04/23 05:24:27;;;;;;;25.40;15.52;;;;;;;11.35;54.42;99547.75;7765191;32;37793;-82
2023/04/23 05:28:43;;;;;;;18.17;10.88;;;;;;;11.39;54.27;99538.72;7740993;32;38055;-83
2023/04/23 05:33:00;;;;;;;15.45;9.70;;;;;;;11.63;53.40;99547.00;7752692;32;40126;-82
2023/04/23 05:37:16;;;;;;;17.87;10.77;;;;;;;11.79;54.50;99552.34;7754225;32;39867;-83
2023/04/23 05:41:32;;;;;;;18.00;10.38;;;;;;;11.77;53.43;99551.81;7765075;32;38060;-84
2023/04/23 05:45:49;;;;;;;17.60;11.12;;;;;;;12.03;52.67;99544.25;7759455;32;38040;-83
2023/04/23 05:50:06;;;;;;;16.35;10.00;;;;;;;12.21;52.59;99550.91;7738290;32;39587;-83
2023/04/23 05:54:22;;;;;;;19.95;10.13;;;;;;;12.19;53.04;99553.13;7737822;32;39754;-84
2023/04/23 05:58:39;;;;;;;14.95;9.07;;;;;;;12.47;52.42;99547.91;7760083;32;37912;-84
2023/04/23 06:02:55;;;;;;;16.58;9.32;;;;;;;12.25;52.76;99545.69;7764738;32;37199;-82
2023/04/23 06:07:14;;;;;;;15.90;9.02;;;;;;;12.19;52.48;99553.13;7747629;32;40170;-83
2023/04/23 06:11:34;;;;;;;16.92;8.60;;;;;;;12.21;52.46;99548.16;7738058;32;40466;-83
2023/04/23 06:15:51;;;;;;;14.85;8.10;;;;;;;12.37;52.16;99559.78;7737373;32;37858;-82
2023/04/23 06:20:10;;;;;;;13.30;8.38;;;;;;;12.68;51.52;99548.50;7751202;32;37930;-84
2023/04/23 06:24:27;;;;;;;13.60;8.15;;;;;;;12.84;51.10;99557.34;7762228;32;39066;-82
2023/04/23 06:28:44;;;;;;;19.52;10.20;;;;;;;13.03;51.02;99555.44;7749957;32;40758;-83
2023/04/23 06:33:01;;;;;;;18.67;10.27;;;;;;;12.85;52.83;99557.06;7737388;32;38516;-82
2023/04/23 06:37:18;;;;;;;27.50;12.05;;;;;;;12.94;51.51;99543.53;7757008;32;37131;-82
2023/04/23 06:41:34;;;;;;;15.75;8.90;;;;;;;13.43;50.39;99550.53;7763409;32;40098;-82
2023/04/23 06:45:50;;;;;;;14.15;8.75;;;;;;;13.66;49.17;99553.47;7757591;32;39776;-83
2023/04/23 06:50:07;;;;;;;16.95;8.82;;;;;;;14.05;47.95;99552.28;7756375;32;37582;-83
2023/04/23 06:54:24;;;;;;;14.45;8.95;;;;;;;14.12;46.96;99558.19;7760090;32;37728;-83
2023/04/23 06:58:40;;;;;;;14.95;8.70;;;;;;;14.24;46.45;99555.78;7736632;32;39082;-83
2023/04/23 07:02:57;;;;;;;17.10;8.98;;;;;;;14.62;46.05;99557.59;7748813;32;40698;-82
2023/04/23 07:07:13;;;;;;;15.45;7.57;;;;;;;14.97;45.93;99539.59;7762317;32;38736;-69
2023/04/23 07:11:33;;;;;;;16.30;8.00;;;;;;;15.19;45.85;99540.75;7760651;32;37066;-82
2023/04/23 07:15:49;;;;;;;11.40;7.53;;;;;;;15.50;46.32;99534.56;7738515;32;39994;-82
2023/04/23 07:20:07;;;;;;;13.20;6.93;;;;;;;15.61;44.54;99541.47;7739644;32;40847;-82
2023/04/23 07:24:25;;;;;;;14.05;6.75;;;;;;;16.27;42.93;99532.69;7760223;32;38770;-83
2023/04/23 07:28:41;;;;;;;10.85;6.03;;;;;;;16.54;41.52;99528.94;7766320;32;37227;-83
2023/04/23 07:32:58;;;;;;;12.20;6.70;;;;;;;16.98;39.27;99526.31;7755094;32;39529;-83
2023/04/23 07:37:14;;;;;;;13.75;7.25;;;;;;;17.59;40.86;99524.44;7738327;32;40772;-82
2023/04/23 07:41:31;;;;;;;13.45;6.82;;;;;;;17.43;40.11;99523.28;7741225;32;37662;-67
2023/04/23 07:45:47;;;;;;;12.50;6.78;;;;;;;17.18;40.36;99536.72;7760874;32;37350;-68
2023/04/23 07:50:04;;;;;;;15.50;6.32;;;;;;;17.87;39.36;99535.13;7755845;32;40083;-81
2023/04/23 07:54:20;;;;;;;12.35;5.82;;;;;;;18.03;37.74;99527.13;7745899;32;39696;-71
2023/04/23 07:58:40;;;;;;;10.38;6.20;;;;;;;18.49;37.28;99525.53;7737666;32;38674;-82
2023/04/23 08:02:57;;;;;;;10.55;5.22;;;;;;;18.75;38.01;99533.69;7740873;32;37256;-84
2023/04/23 08:07:13;;;;;;;13.13;5.30;;;;;;;19.60;35.73;99518.00;7751479;32;39942;-84
2023/04/23 08:11:30;;;;;;;9.60;5.10;;;;;;;19.93;35.93;99513.66;7758818;32;39906;-78
2023/04/23 08:15:47;;;;;;;9.68;5.07;;;;;;;20.36;34.64;99506.84;7764017;32;38665;-80
2023/04/23 08:20:07;;;;;;;8.15;4.90;;;;;;;20.79;32.59;99499.94;7745670;32;37013;-82
2023/04/23 08:24:23;;;;;;;11.90;5.28;;;;;;;20.97;33.55;99506.03;7757094;32;39163;-82
2023/04/23 08:28:40;;;;;;;8.38;4.82;;;;;;;21.50;32.59;99500.50;7749702;32;39927;-78
2023/04/23 08:32:56;;;;;;;7.70;4.82;;;;;;;21.81;31.51;99497.03;7746585;32;38660;-79
2023/04/23 08:37:13;;;;;;;10.98;5.10;;;;;;;21.64;32.10;99495.34;7746087;32;37682;-86
2023/04/23 08:41:48;;;;;;;8.27;4.57;;;;;;;22.18;29.69;99490.44;7737535;32;39346;-84
2023/04/23 08:46:07;;;;;;;10.82;5.12;;;;;;;22.16;28.54;99484.44;7734532;32;39561;-84
2023/04/23 08:50:24;;;;;;;10.23;4.80;;;;;;;22.08;27.25;99483.47;7736952;32;37764;-84
2023/04/23 08:54:44;;;;;;;9.93;4.60;;;;;;;21.94;28.27;99475.56;7737307;32;38665;-84
2023/04/23 08:59:02;;;;;;;12.68;5.15;;;;;;;22.30;26.14;99471.78;7734617;32;39995;-84
2023/04/23 09:03:19;;;;;;;9.73;4.60;;;;;;;22.18;27.02;99459.91;7735072;32;40568;-85
2023/04/23 09:07:36;;;;;;;9.45;4.12;;;;;;;22.85;26.16;99471.06;7736402;32;38632;-85
2023/04/23 09:11:53;;;;;;;7.60;4.12;;;;;;;22.79;25.15;99466.97;7737188;32;37646;-85
2023/04/23 09:16:10;;;;;;;9.73;4.07;;;;;;;22.85;24.79;99466.31;7738511;32;40067;-85
2023/04/23 09:20:26;;;;;;;9.80;4.10;;;;;;;22.84;24.99;99467.47;7737221;32;39961;-85
2023/04/23 09:24:43;;;;;;;8.32;3.87;;;;;;;22.83;22.64;99457.53;7738426;32;38485;-85
2023/04/23 09:28:59;;;;;;;9.63;4.15;;;;;;;23.14;20.30;99464.19;7737921;32;37036;-85
2023/04/23 09:33:16;;;;;;;7.97;4.00;;;;;;;23.12;20.55;99455.41;7738440;32;39337;-85
2023/04/23 09:37:33;;;;;;;14.25;4.78;;;;;;;23.18;21.93;99456.75;7737882;32;40720;-85
2023/04/23 09:41:53;;;;;;;8.20;3.78;;;;;;;23.43;22.39;99450.88;7736930;32;38589;-85
2023/04/23 09:46:09;;;;;;;7.53;3.60;;;;;;;23.95;20.91;99448.69;7736974;32;37769;-85
2023/04/23 09:50:38;;;;;;;6.90;3.22;;;;;;;24.32;19.88;99443.38;7737087;32;39328;-85
2023/04/23 09:55:00;;;;;;;7.53;3.67;;;;;;;24.40;19.68;99440.69;7736676;32;39689;-85
2023/04/23 09:59:21;;;;;;;9.20;4.23;;;;;;;23.97;17.02;99438.00;7738046;32;38542;-85
2023/04/23 10:03:53;;;;;;;7.25;4.00;;;;;;;24.32;17.68;99435.03;7738026;32;37092;-85
2023/04/23 10:08:09;;;;;;;9.23;3.90;;;;;;;24.26;18.16;99422.56;7736948;32;39335;-85
2023/04/23 10:12:27;;;;;;;8.00;4.57;;;;;;;23.71;19.10;99424.78;7737702;32;39851;-85
2023/04/23 10:16:51;;;;;;;;;;;;;;;24.00;18.58;99418.56;7738079;32;38363;-86
2023/04/23 10:21:08;;;;;;;7.32;3.83;;;;;;;23.92;17.66;99416.03;7737834;32;37711;-86
2023/04/23 10:25:25;;;;;;;6.12;3.60;;;;;;;23.38;18.12;99403.91;7737923;32;39513;-85
2023/04/23 10:29:42;;;;;;;9.43;3.87;;;;;;;23.71;18.49;99399.72;7737592;32;40021;-85
2023/04/23 10:34:04;;;;;;;8.40;3.70;;;;;;;24.00;18.10;99401.88;7737450;32;38718;-84
2023/04/23 10:38:22;;;;;;;15.27;3.75;;;;;;;23.51;18.59;99404.53;7737429;32;37769;-85
2023/04/23 10:42:40;;;;;;;8.07;3.53;;;;;;;24.47;17.08;99402.59;7737349;32;39975;-85
2023/04/23 10:46:59;;;;;;;8.02;3.45;;;;;;;24.60;18.03;99397.66;7735018;32;40532;-85
2023/04/23 10:51:16;;;;;;;8.77;3.25;;;;;;;24.39;16.68;99395.34;7737179;32;38031;-85
2023/04/23 10:56:06;;;;;;;8.02;3.60;;;;;;;24.09;17.85;99384.91;7736292;32;38133;-85
2023/04/23 11:00:22;;;;;;;5.25;3.30;;;;;;;24.44;16.80;99378.31;7736770;32;40109;-85
2023/04/23 11:04:57;;;;;;;6.75;3.35;;;;;;;25.33;18.17;99375.09;7736684;32;39701;-85
2023/04/23 11:09:43;;;;;;;9.48;3.08;;;;;;;25.59;17.18;99365.00;7736544;32;38715;-85
2023/04/23 11:14:09;;;;;;;5.68;2.85;;;;;;;26.03;16.53;99384.59;7736564;32;37175;-86
2023/04/23 11:18:27;;;;;;;7.72;3.33;;;;;;;26.28;14.48;99383.16;7735847;32;38812;-85
2023/04/23 11:22:48;;;;;;;9.68;3.50;;;;;;;25.53;15.17;99374.94;7735032;32;40001;-86
2023/04/23 11:27:09;;;;;;;9.05;3.22;;;;;;;25.22;14.99;99382.53;7736231;32;37864;-86
2023/04/23 11:31:26;;;;;;;5.62;2.80;;;;;;;25.32;15.64;99373.50;7736041;32;37211;-85
2023/04/23 11:35:42;;;;;;;6.62;2.95;;;;;;;25.90;14.84;99371.28;7735938;32;39785;-85
2023/04/23 11:40:05;;;;;;;6.68;2.90;;;;;;;25.89;15.20;99366.88;7735832;32;39804;-85
2023/04/23 11:44:21;;;;;;;5.72;3.22;;;;;;;25.85;15.71;99359.28;7734617;32;38713;-86
2023/04/23 11:48:38;;;;;;;5.87;3.28;;;;;;;26.61;14.05;99357.84;7735565;32;37808;-86
2023/04/23 11:52:54;;;;;;;5.78;3.00;;;;;;;26.44;14.21;99352.97;7735489;32;39383;-85
2023/04/23 11:57:13;;;;;;;7.25;3.30;;;;;;;25.93;14.85;99340.59;7734822;32;39699;-86
2023/04/23 12:01:45;;;;;;;5.03;3.00;;;;;;;26.35;15.19;99349.69;7738919;32;38762;-85
2023/04/23 12:06:02;;;;;;;6.37;3.10;;;;;;;26.73;15.03;99336.34;7739445;32;37754;-85
2023/04/23 12:10:19;;;;;;;7.03;3.08;;;;;;;26.29;14.80;99340.09;7739352;32;40194;-85
2023/04/23 12:14:36;;;;;;;8.27;3.42;;;;;;;26.42;13.90;99332.97;7739175;32;39943;-85
2023/04/23 12:18:53;;;;;;;5.57;3.10;;;;;;;25.12;16.44;99326.22;7738851;32;38592;-86
2023/04/23 12:23:10;;;;;;;6.07;2.80;;;;;;;25.67;16.10;99325.59;7737780;32;37860;-86
2023/04/23 12:27:27;;;;;;;4.62;2.90;;;;;;;26.48;14.24;99331.41;7739052;32;39461;-85
2023/04/23 12:31:43;;;;;;;4.15;3.10;;;;;;;27.08;14.58;99318.09;7739133;32;40013;-86
2023/04/23 12:36:00;;;;;;;9.27;3.10;;;;;;;27.26;14.60;99312.56;7738903;32;38725;-85
2023/04/23 12:40:16;;;;;;;6.45;3.03;;;;;;;26.79;14.00;99316.00;7738846;32;36981;-85
2023/04/23 12:44:34;;;;;;;21.10;4.10;;;;;;;26.94;14.91;99302.91;7738956;32;40022;-85
2023/04/23 12:48:51;;;;;;;7.95;3.12;;;;;;;28.33;14.59;99294.97;7739029;32;38896;-85
2023/04/23 12:53:07;;;;;;;7.22;3.15;;;;;;;27.85;13.52;99293.41;7738798;32;38001;-85
2023/04/23 12:57:24;;;;;;;4.90;3.00;;;;;;;26.54;14.43;99299.09;7711836;32;36916;-85
2023/04/23 13:01:40;;;;;;;6.15;3.10;;;;;;;26.07;15.69;99300.81;7711873;32;39893;-85
2023/04/23 13:05:57;;;;;;;7.20;2.90;;;;;;;26.73;15.19;99297.22;7711928;32;40636;-85
2023/04/23 13:10:13;;;;;;;6.90;3.28;;;;;;;26.29;14.92;99296.19;7711130;32;38643;-85
2023/04/23 13:14:31;;;;;;;9.40;3.00;;;;;;;26.64;13.80;99282.81;7698269;32;37929;-85
2023/04/23 13:18:47;;;;;;;9.00;2.70;;;;;;;26.81;14.82;99282.06;7699717;32;39411;-84
2023/04/23 13:23:03;;;;;;;6.00;2.78;;;;;;;26.61;13.46;99262.81;7688255;32;40021;-86
2023/04/23 13:27:20;;;;;;;7.03;3.33;;;;;;;26.63;14.60;99265.25;7685191;32;38076;-85
2023/04/23 13:31:36;;;;;;;5.60;2.60;;;;;;;26.85;15.50;99265.31;7685036;32;36942;-84
2023/04/23 13:35:55;;;;;;;5.62;3.15;;;;;;;27.27;13.75;99250.59;7685104;32;39221;-86
2023/04/23 13:40:11;;;;;;;5.37;2.90;;;;;;;27.12;13.04;99243.38;7693422;32;39896;-85
2023/04/23 13:44:28;;;;;;;6.07;3.30;;;;;;;27.80;14.65;99235.00;7708553;32;38552;-85
2023/04/23 13:48:44;;;;;;;5.20;2.83;;;;;;;27.70;13.46;99219.84;7710820;32;37145;-84
2023/04/23 13:53:00;;;;;;;5.53;2.90;;;;;;;27.91;13.49;99219.03;7720995;32;39373;-84
2023/04/23 13:57:17;;;;;;;13.93;3.60;;;;;;;28.36;12.81;99226.91;7745445;32;39677;-81
2023/04/23 14:01:33;;;;;;;9.30;3.70;;;;;;;28.01;14.02;99214.63;7751936;32;38078;-81
2023/04/23 14:05:49;;;;;;;8.32;3.25;;;;;;;28.42;12.76;99208.47;7764730;32;37190;-81
2023/04/23 14:10:06;;;;;;;4.65;2.90;;;;;;;28.99;13.65;99203.75;7764812;32;40077;-81
2023/04/23 14:14:23;;;;;;;5.40;2.87;;;;;;;29.69;14.25;99197.22;7764683;32;39889;-80
2023/04/23 14:18:39;;;;;;;5.93;2.95;;;;;;;29.31;12.52;99205.56;7764533;32;37873;-80
2023/04/23 14:23:01;;;;;;;6.82;2.85;;;;;;;28.64;12.72;99202.78;7764241;32;37283;-84
2023/04/23 14:27:18;;;;;;;5.05;2.95;;;;;;;28.02;13.51;99196.59;7762915;32;39340;-84
2023/04/23 14:31:36;;;;;;;6.70;3.10;;;;;;;27.76;14.45;99197.03;7764509;32;40791;-84
2023/04/23 14:35:53;;;;;;;5.70;3.22;;;;;;;27.26;14.29;99187.44;7764362;32;37876;-84
2023/04/23 14:40:12;;;;;;;6.93;3.22;;;;;;;27.68;14.17;99188.66;7764245;32;37147;-85
2023/04/23 14:44:28;;;;;;;6.55;2.85;;;;;;;27.89;14.96;99189.81;7760582;32;39067;-86
2023/04/23 14:48:45;;;;;;;8.48;3.00;;;;;;;27.66;14.37;99199.44;7737157;32;40086;-85
2023/04/23 14:53:06;;;;;;;5.82;2.80;;;;;;;26.74;14.20;99184.97;7736958;32;38662;-86
2023/04/23 14:57:22;;;;;;;6.15;3.17;;;;;;;26.80;15.31;99179.78;7737048;32;37467;-85
2023/04/23 15:01:39;;;;;;;5.93;2.85;;;;;;;27.09;14.78;99169.44;7737944;32;39359;-81
2023/04/23 15:05:55;;;;;;;5.70;2.87;;;;;;;26.54;14.51;99173.31;7756570;32;40533;-81
2023/04/23 15:10:12;;;;;;;9.02;3.25;;;;;;;26.54;15.45;99176.09;7758661;32;37886;-81
2023/04/23 15:14:35;;;;;;;8.38;3.35;;;;;;;26.07;16.61;99191.91;7735376;32;37034;-81
2023/04/23 15:18:51;;;;;;;6.78;2.95;;;;;;;25.68;15.54;99181.25;7736493;32;39417;-80
2023/04/23 15:23:09;;;;;;;4.87;2.90;;;;;;;25.46;15.73;99183.91;7744448;32;39882;-82
2023/04/23 15:27:25;;;;;;;5.57;3.12;;;;;;;24.78;15.84;99185.28;7734713;32;37991;-80
2023/04/23 15:31:41;;;;;;;7.55;3.17;;;;;;;25.14;15.68;99180.81;7735898;32;37973;-79
2023/04/23 15:35:58;;;;;;;7.03;3.53;;;;;;;25.42;16.25;99177.53;7740439;32;40078;-84
2023/04/23 15:40:15;;;;;;;5.55;2.95;;;;;;;25.70;15.94;99172.50;7739702;32;40746;-77
2023/04/23 15:44:32;;;;;;;5.25;2.95;;;;;;;25.02;17.04;99165.19;7762134;32;37954;-77
2023/04/23 15:48:48;;;;;;;5.50;3.10;;;;;;;24.82;17.10;99161.00;7758532;32;37759;-78
2023/04/23 15:53:04;;;;;;;10.02;3.15;;;;;;;25.18;17.38;99158.53;7739533;32;39927;-78
2023/04/23 15:57:21;;;;;;;5.20;3.10;;;;;;;24.91;17.17;99158.72;7738091;32;39910;-77
2023/04/23 16:01:37;;;;;;;9.63;3.30;;;;;;;25.04;17.12;99162.00;7739433;32;37992;-77
2023/04/23 16:05:53;;;;;;;11.38;3.80;;;;;;;25.32;17.39;99153.13;7739371;32;37133;-76
2023/04/23 16:10:10;;;;;;;10.27;3.80;;;;;;;25.16;17.42;99152.56;7739357;32;39380;-75
2023/04/23 16:14:26;;;;;;;6.68;3.33;;;;;;;25.44;17.45;99152.00;7760070;32;40772;-75
2023/04/23 16:18:42;;;;;;;5.12;3.30;;;;;;;25.60;16.79;99149.72;7759182;32;37641;-76
2023/04/23 16:23:00;;;;;;;7.18;3.60;;;;;;;25.12;16.46;99153.31;7742639;32;37204;-76
2023/04/23 16:27:16;;;;;;;4.20;3.00;;;;;;;24.63;17.28;99154.47;7760506;32;39315;-77
2023/04/23 16:31:32;;;;;;;5.78;3.20;;;;;;;24.87;17.29;99147.53;7754448;32;39883;-77
2023/04/23 16:35:49;;;;;;;6.32;3.33;;;;;;;24.66;17.13;99144.53;7738920;32;38621;-78
2023/04/23 16:40:06;;;;;;;6.15;3.40;;;;;;;24.76;17.52;99141.06;7738957;32;37102;-78
2023/04/23 16:44:22;;;;;;;6.03;3.30;;;;;;;24.39;17.49;99144.62;7738353;32;40412;-78
2023/04/23 16:48:38;;;;;;;6.00;3.08;;;;;;;24.43;17.62;99144.66;7743167;32;39930;-77
2023/04/23 16:52:55;;;;;;;8.55;3.10;;;;;;;23.98;18.55;99136.97;7748398;32;38642;-77
2023/04/23 16:57:12;;;;;;;7.65;3.92;;;;;;;23.98;18.40;99142.53;7738720;32;37159;-77
2023/04/23 17:01:28;;;;;;;9.15;3.50;;;;;;;23.77;18.50;99131.13;7751411;32;39209;-77
2023/04/23 17:05:47;;;;;;;4.30;2.90;;;;;;;23.02;19.03;99142.66;7765678;32;39937;-75
2023/04/23 17:10:03;;;;;;;6.28;3.25;;;;;;;23.39;18.97;99141.31;7764462;32;38606;-74
2023/04/23 17:14:20;;;;;;;5.55;3.30;;;;;;;23.11;19.35;99134.13;7747728;32;37946;-75
2023/04/23 17:18:36;;;;;;;8.02;3.30;;;;;;;23.25;20.33;99139.09;7740689;32;40281;-74
2023/04/23 17:22:52;;;;;;;6.95;3.47;;;;;;;22.31;20.68;99131.06;7753440;32;40823;-73
2023/04/23 17:27:09;;;;;;;10.60;3.35;;;;;;;22.25;20.86;99126.91;7755566;32;37764;-78
2023/04/23 17:31:26;;;;;;;6.00;3.40;;;;;;;22.41;21.26;99132.44;7746382;32;37181;-79
2023/04/23 17:35:42;;;;;;;6.12;3.40;;;;;;;22.37;21.01;99135.16;7754561;32;37761;-79
2023/04/23 17:39:59;;;;;;;9.65;3.75;;;;;;;21.98;21.66;99129.56;7751110;32;39721;-79
2023/04/23 17:44:15;;;;;;;9.50;3.40;;;;;;;21.83;22.13;99141.53;7752058;32;38619;-79
2023/04/23 17:48:31;;;;;;;6.05;3.28;;;;;;;21.84;22.17;99140.37;7751728;32;37232;-79
2023/04/23 17:52:50;;;;;;;5.65;3.47;;;;;;;21.75;22.34;99144.16;7756626;32;39072;-77
2023/04/23 17:57:08;;;;;;;8.82;4.07;;;;;;;22.04;22.56;99144.78;7756287;32;40845;-79
2023/04/23 18:01:25;;;;;;;7.05;3.72;;;;;;;21.68;23.59;99149.56;7749712;32;38244;-83
2023/04/23 18:05:42;;;;;;;6.72;3.17;;;;;;;21.32;23.91;99158.97;7738038;32;37137;-81
2023/04/23 18:09:58;;;;;;;7.12;3.85;;;;;;;21.31;23.74;99152.63;7748183;32;39395;-81
2023/04/23 18:14:14;;;;;;;10.70;3.42;;;;;;;20.96;24.36;99161.66;7764885;32;40543;-81
2023/04/23 18:18:31;;;;;;;9.52;3.90;;;;;;;21.13;24.48;99168.03;7762843;32;37852;-81
2023/04/23 18:22:48;;;;;;;8.38;3.40;;;;;;;20.92;24.59;99168.25;7764664;32;37089;-80
2023/04/23 18:27:04;;;;;;;7.97;4.00;;;;;;;20.46;25.38;99174.16;7764569;32;39205;-80
2023/04/23 18:31:21;;;;;;;8.70;4.10;;;;;;;20.48;25.18;99171.84;7764144;32;40911;-69
2023/04/23 18:35:39;;;;;;;6.70;3.50;;;;;;;20.41;25.53;99179.94;7764358;32;37953;-83
2023/04/23 18:39:57;;;;;;;7.05;3.50;;;;;;;20.10;26.57;99186.97;7754128;32;37051;-83
2023/04/23 18:44:13;;;;;;;6.82;4.00;;;;;;;20.08;26.12;99192.06;7736102;32;39324;-81
2023/04/23 18:48:33;;;;;;;5.55;3.58;;;;;;;20.08;25.79;99192.06;7735982;32;39947;-83
2023/04/23 18:52:49;;;;;;;8.45;4.15;;;;;;;19.84;26.45;99192.91;7736719;32;37864;-83
2023/04/23 18:57:06;;;;;;;7.93;3.83;;;;;;;19.79;26.21;99193.16;7736788;32;37100;-82
2023/04/23 19:01:23;;;;;;;9.75;4.00;;;;;;;19.31;27.06;99201.88;7751794;32;40062;-83
2023/04/23 19:05:40;;;;;;;7.15;3.65;;;;;;;19.33;27.00;99198.78;7735574;32;39875;-83
2023/04/23 19:09:57;;;;;;;6.72;3.62;;;;;;;19.28;27.04;99201.78;7738792;32;37665;-83
2023/04/23 19:14:14;;;;;;;6.43;3.53;;;;;;;19.17;27.01;99198.66;7740044;32;36668;-84
2023/04/23 19:18:31;;;;;;;7.50;3.80;;;;;;;19.58;26.89;99196.03;7738741;32;39226;-83
2023/04/23 19:22:47;;;;;;;6.18;3.53;;;;;;;19.17;27.53;99192.34;7739745;32;39890;-83
2023/04/23 19:27:05;;;;;;;6.47;3.95;;;;;;;18.67;28.40;99208.75;7739635;32;37910;-83
2023/04/23 19:31:22;;;;;;;8.57;3.80;;;;;;;18.62;28.96;99213.69;7739793;32;37225;-83
2023/04/23 19:35:38;;;;;;;7.43;3.67;;;;;;;18.51;29.72;99203.06;7743996;32;39057;-82
2023/04/23 19:39:55;;;;;;;8.98;3.80;;;;;;;18.06;29.93;99202.97;7755207;32;39856;-84
2023/04/23 19:44:11;;;;;;;5.43;3.60;;;;;;;18.09;28.54;99205.88;7755657;32;37919;-84
2023/04/23 19:48:28;;;;;;;6.95;3.60;;;;;;;18.15;29.35;99195.44;7754222;32;36208;-88
2023/04/23 19:52:45;;;;;;;10.85;3.72;;;;;;;17.87;29.57;99198.72;7764200;32;39267;-88
2023/04/23 19:57:02;;;;;;;9.82;3.90;;;;;;;17.88;29.70;99189.31;7750080;32;40703;-87
2023/04/23 20:01:19;;;;;;;6.70;3.37;;;;;;;17.94;29.17;99190.72;7754244;32;37837;-86
2023/04/23 20:05:36;;;;;;;5.60;3.20;;;;;;;17.82;30.18;99185.09;7756462;32;36454;-84